createdAt,value
2022-11-26T00:01:30.317Z,5.48
2022-11-26T00:04:03.087Z,5.43
2022-11-26T00:06:37.221Z,5.40
2022-11-26T00:09:08.692Z,5.37
2022-11-26T00:11:37.792Z,5.28
2022-11-26T00:14:15.189Z,5.32
2022-11-26T00:16:44.795Z,5.36
2022-11-26T00:19:14.084Z,5.32
2022-11-26T00:21:44.672Z,5.26
2022-11-26T00:24:26.753Z,5.13
2022-11-26T00:26:57.743Z,5.36
2022-11-26T00:29:26.855Z,5.27
2022-11-26T00:31:55.999Z,5.17
2022-11-26T00:34:25.096Z,5.21
2022-11-26T00:36:55.620Z,5.33
2022-11-26T00:39:25.795Z,5.35
2022-11-26T00:41:55.310Z,5.28
2022-11-26T00:44:26.588Z,5.21
2022-11-26T00:46:55.717Z,5.39
2022-11-26T00:49:25.072Z,5.16
2022-11-26T00:51:55.599Z,5.04
2022-11-26T00:54:25.281Z,5.22
2022-11-26T00:56:54.667Z,5.28
2022-11-26T00:59:24.381Z,5.22
2022-11-26T01:01:53.475Z,5.15
2022-11-26T01:04:22.586Z,5.15
2022-11-26T01:06:51.694Z,5.25
2022-11-26T01:09:23.233Z,5.15
2022-11-26T01:11:54.308Z,5.12
2022-11-26T01:14:24.408Z,5.12
2022-11-26T01:16:56.910Z,5.14
2022-11-26T01:19:26.051Z,5.13
2022-11-26T01:21:55.134Z,5.17
2022-11-26T01:24:25.506Z,5.09
2022-11-26T01:26:54.587Z,5.11
2022-11-26T01:29:23.650Z,5.11
2022-11-26T01:31:52.806Z,5.12
2022-11-26T01:34:21.946Z,5.12
2022-11-26T01:36:51.043Z,5.23
2022-11-26T01:39:21.955Z,5.19
2022-11-26T01:41:59.951Z,5.19
2022-11-26T01:44:32.160Z,5.12
2022-11-26T01:47:02.849Z,5.10
2022-11-26T01:49:33.925Z,5.15
2022-11-26T01:52:08.209Z,5.11
2022-11-26T01:54:41.790Z,5.05
2022-11-26T01:57:17.041Z,5.04
2022-11-26T01:59:50.851Z,5.02
2022-11-26T02:02:21.097Z,5.02
2022-11-26T02:05:01.924Z,5.03
2022-11-26T02:07:31.119Z,5.04
2022-11-26T02:10:00.787Z,5.06
2022-11-26T02:12:31.597Z,5.04
2022-11-26T02:15:00.937Z,5.00
2022-11-26T02:17:36.053Z,4.98
2022-11-26T02:20:34.226Z,4.97
2022-11-26T02:23:34.812Z,4.94
2022-11-26T02:26:40.303Z,4.92
2022-11-26T02:29:16.684Z,4.94
2022-11-26T02:31:54.354Z,4.93
2022-11-26T02:34:34.292Z,4.94
2022-11-26T02:37:10.266Z,4.95
2022-11-26T02:39:39.335Z,4.92
2022-11-26T02:42:26.187Z,4.91
2022-11-26T02:44:58.623Z,4.93
2022-11-26T02:47:30.560Z,4.93
2022-11-26T02:50:03.519Z,4.94
2022-11-26T02:52:34.834Z,4.95
2022-11-26T02:55:06.885Z,4.96
2022-11-26T02:57:44.632Z,4.95
2022-11-26T03:00:14.913Z,4.98
2022-11-26T03:02:49.779Z,4.93
2022-11-26T03:05:20.466Z,4.96
2022-11-26T03:07:52.787Z,4.96
2022-11-26T03:10:25.996Z,4.94
2022-11-26T03:12:55.445Z,4.93
2022-11-26T03:15:24.947Z,4.92
2022-11-26T03:17:55.390Z,4.93
2022-11-26T03:20:24.520Z,4.94
2022-11-26T03:22:53.696Z,4.88
2022-11-26T03:25:22.812Z,4.87
2022-11-26T03:27:51.904Z,4.88
2022-11-26T03:30:21.217Z,4.83
2022-11-26T03:32:50.299Z,4.87
2022-11-26T03:35:20.911Z,4.86
2022-11-26T03:37:50.015Z,4.83
2022-11-26T03:40:19.354Z,4.83
2022-11-26T03:42:48.410Z,4.86
2022-11-26T03:45:17.554Z,4.82
2022-11-26T03:47:46.644Z,4.77
2022-11-26T03:50:15.726Z,4.79
2022-11-26T03:52:46.200Z,4.78
2022-11-26T03:55:15.359Z,4.79
2022-11-26T03:57:44.421Z,4.78
2022-11-26T04:00:14.864Z,4.76
2022-11-26T04:02:44.009Z,4.80
2022-11-26T04:05:13.162Z,4.79
2022-11-26T04:07:42.321Z,4.78
2022-11-26T04:10:13.448Z,4.77
2022-11-26T04:12:42.488Z,4.77
2022-11-26T04:15:12.293Z,4.70
2022-11-26T04:17:41.337Z,4.65
2022-11-26T04:20:11.586Z,4.62
2022-11-26T04:22:40.670Z,4.58
2022-11-26T04:25:11.772Z,4.53
2022-11-26T04:27:40.933Z,4.46
2022-11-26T04:30:11.247Z,4.40
2022-11-26T04:32:40.373Z,4.36
2022-11-26T04:35:10.250Z,4.30
2022-11-26T04:37:39.313Z,4.24
2022-11-26T04:40:09.813Z,4.27
2022-11-26T04:42:40.362Z,4.26
2022-11-26T04:45:10.861Z,4.24
2022-11-26T04:47:42.899Z,4.25
2022-11-26T04:50:13.211Z,4.21
2022-11-26T04:52:42.307Z,4.23
2022-11-26T04:55:11.792Z,4.22
2022-11-26T04:57:42.566Z,4.22
2022-11-26T05:00:13.131Z,4.24
2022-11-26T05:02:42.239Z,4.23
2022-11-26T05:05:11.717Z,4.23
2022-11-26T05:07:41.170Z,4.27
2022-11-26T05:10:11.479Z,4.25
2022-11-26T05:12:41.911Z,4.26
2022-11-26T05:15:11.696Z,4.26
2022-11-26T05:17:40.772Z,4.26
2022-11-26T05:20:11.054Z,4.28
2022-11-26T05:22:40.163Z,4.30
2022-11-26T05:25:10.451Z,4.32
2022-11-26T05:27:40.911Z,4.29
2022-11-26T05:30:11.138Z,4.31
2022-11-26T05:32:40.217Z,4.33
2022-11-26T05:35:09.912Z,4.33
2022-11-26T05:37:39.092Z,4.35
2022-11-26T05:40:09.749Z,4.38
2022-11-26T05:42:39.141Z,4.54
2022-11-26T05:45:10.441Z,4.41
2022-11-26T05:47:39.503Z,4.48
2022-11-26T05:50:09.753Z,4.43
2022-11-26T05:52:38.965Z,4.47
2022-11-26T05:55:09.484Z,4.44
2022-11-26T05:57:39.239Z,4.78
2022-11-26T06:00:11.527Z,4.78
2022-11-26T06:02:44.018Z,4.62
2022-11-26T06:05:13.716Z,4.84
2022-11-26T06:07:45.119Z,5.00
2022-11-26T06:10:14.875Z,4.84
2022-11-26T06:12:43.975Z,4.80
2022-11-26T06:15:14.588Z,4.82
2022-11-26T06:17:43.675Z,4.69
2022-11-26T06:20:13.971Z,4.63
2022-11-26T06:22:44.517Z,4.73
2022-11-26T06:25:14.940Z,4.71
2022-11-26T06:27:44.417Z,4.72
2022-11-26T06:30:15.816Z,4.73
2022-11-26T06:32:45.135Z,4.69
2022-11-26T06:35:14.252Z,4.72
2022-11-26T06:37:43.612Z,4.69
2022-11-26T06:40:18.808Z,4.68
2022-11-26T06:42:51.039Z,4.65
2022-11-26T06:45:22.618Z,4.63
2022-11-26T06:47:53.003Z,4.64
2022-11-26T06:50:23.738Z,4.64
2022-11-26T06:52:53.269Z,4.64
2022-11-26T06:55:23.024Z,4.63
2022-11-26T06:57:52.213Z,4.62
2022-11-26T07:00:23.231Z,4.63
2022-11-26T07:02:52.455Z,4.64
2022-11-26T07:05:21.601Z,4.67
2022-11-26T07:07:50.725Z,4.72
2022-11-26T07:10:20.242Z,4.65
2022-11-26T07:12:49.255Z,4.64
2022-11-26T07:15:18.449Z,4.65
2022-11-26T07:17:48.869Z,4.68
2022-11-26T07:20:18.092Z,4.62
2022-11-26T07:22:47.512Z,4.62
2022-11-26T07:25:17.530Z,4.65
2022-11-26T07:27:46.609Z,4.66
2022-11-26T07:30:16.160Z,4.65
2022-11-26T07:32:45.241Z,4.66
2022-11-26T07:35:19.945Z,4.62
2022-11-26T07:37:49.045Z,4.61
2022-11-26T07:40:18.218Z,4.62
2022-11-26T07:42:52.907Z,4.59
2022-11-26T07:45:26.617Z,4.61
2022-11-26T07:47:55.704Z,4.60
2022-11-26T07:50:26.078Z,4.63
2022-11-26T07:52:55.140Z,4.68
2022-11-26T07:55:24.224Z,4.73
2022-11-26T07:57:53.322Z,4.70
2022-11-26T08:00:22.925Z,4.75
2022-11-26T08:02:52.028Z,4.78
2022-11-26T08:05:21.622Z,4.86
2022-11-26T08:07:52.492Z,4.89
2022-11-26T08:10:21.660Z,4.91
2022-11-26T08:12:51.981Z,4.93
2022-11-26T08:15:21.080Z,4.98
2022-11-26T08:17:50.155Z,4.95
2022-11-26T08:20:21.345Z,5.07
2022-11-26T08:22:54.891Z,5.04
2022-11-26T08:25:23.888Z,5.04
2022-11-26T08:27:53.031Z,5.08
2022-11-26T08:30:22.221Z,5.04
2022-11-26T08:32:51.291Z,5.05
2022-11-26T08:35:20.385Z,5.06
2022-11-26T08:37:49.442Z,5.07
2022-11-26T08:40:20.010Z,5.06
2022-11-26T08:42:49.063Z,5.04
2022-11-26T08:45:18.438Z,4.95
2022-11-26T08:47:47.545Z,5.00
2022-11-26T08:50:16.928Z,5.05
2022-11-26T08:52:46.032Z,5.09
2022-11-26T08:55:15.226Z,5.07
2022-11-26T08:57:47.376Z,5.12
2022-11-26T09:00:17.473Z,5.19
2022-11-26T09:02:46.610Z,5.25
2022-11-26T09:05:15.739Z,5.25
2022-11-26T09:07:48.905Z,5.26
2022-11-26T09:10:18.464Z,5.39
2022-11-26T09:12:48.921Z,5.54
2022-11-26T09:15:18.253Z,5.51
2022-11-26T09:17:47.296Z,5.40
2022-11-26T09:20:16.540Z,5.45
2022-11-26T09:22:45.896Z,5.52
2022-11-26T09:25:15.062Z,5.55
2022-11-26T09:27:44.075Z,5.50
2022-11-26T09:30:16.214Z,5.50
2022-11-26T09:32:45.334Z,5.59
2022-11-26T09:35:14.468Z,5.63
2022-11-26T09:37:48.667Z,5.57
2022-11-26T09:40:22.318Z,5.63
2022-11-26T09:43:00.311Z,5.67
2022-11-26T09:45:42.126Z,5.66
2022-11-26T09:48:18.430Z,5.76
2022-11-26T09:50:49.107Z,5.69
2022-11-26T09:53:21.988Z,5.78
2022-11-26T09:55:53.448Z,5.68
2022-11-26T09:58:28.908Z,5.72
2022-11-26T10:01:01.237Z,5.67
2022-11-26T10:03:35.225Z,5.68
2022-11-26T10:06:08.812Z,5.78
2022-11-26T10:09:02.629Z,5.73
2022-11-26T10:11:38.582Z,5.73
2022-11-26T10:14:19.937Z,5.79
2022-11-26T10:17:02.994Z,5.87
2022-11-26T10:19:43.752Z,5.80
2022-11-26T10:22:21.608Z,5.81
2022-11-26T10:24:52.431Z,5.89
2022-11-26T10:27:24.918Z,5.86
2022-11-26T10:29:58.415Z,5.89
2022-11-26T10:32:33.392Z,5.85
2022-11-26T10:35:02.691Z,5.79
2022-11-26T10:37:31.982Z,5.79
2022-11-26T10:40:17.563Z,5.84
2022-11-26T10:42:56.848Z,5.85
2022-11-26T10:45:35.890Z,5.85
2022-11-26T10:48:25.469Z,6.01
2022-11-26T10:51:01.001Z,5.97
2022-11-26T10:53:33.384Z,6.19
2022-11-26T10:56:06.965Z,6.02
2022-11-26T10:58:42.662Z,6.17
2022-11-26T11:01:14.251Z,6.15
2022-11-26T11:04:07.743Z,6.05
2022-11-26T11:06:42.213Z,5.94
2022-11-26T11:09:33.050Z,6.04
2022-11-26T11:12:21.821Z,6.05
2022-11-26T11:14:51.987Z,6.08
2022-11-26T11:17:32.506Z,6.10
2022-11-26T11:20:13.366Z,6.06
2022-11-26T11:22:43.231Z,5.90
2022-11-26T11:25:24.614Z,5.90
2022-11-26T11:28:00.767Z,5.90
2022-11-26T11:30:32.332Z,5.95
2022-11-26T11:33:13.917Z,5.92
2022-11-26T11:35:44.368Z,5.89
2022-11-26T11:38:24.402Z,5.74
2022-11-26T11:40:54.049Z,5.86
2022-11-26T11:43:24.808Z,5.82
2022-11-26T11:46:09.374Z,5.86
2022-11-26T11:48:49.399Z,5.84
2022-11-26T11:51:30.958Z,5.85
2022-11-26T11:54:13.536Z,5.83
2022-11-26T11:56:47.917Z,5.81
2022-11-26T11:59:58.348Z,5.88
2022-11-26T12:02:51.818Z,5.96
2022-11-26T12:05:39.092Z,5.87
2022-11-26T12:08:23.131Z,5.91
2022-11-26T12:11:07.883Z,5.81
2022-11-26T12:13:49.440Z,5.85
2022-11-26T12:16:21.942Z,5.88
2022-11-26T12:18:59.652Z,5.84
2022-11-26T12:21:37.584Z,5.93
2022-11-26T12:24:15.013Z,5.82
2022-11-26T12:26:49.555Z,5.88
2022-11-26T12:29:30.324Z,5.95
2022-11-26T12:32:06.332Z,5.90
2022-11-26T12:34:39.695Z,5.97
2022-11-26T12:37:18.393Z,6.06
2022-11-26T12:39:54.991Z,5.94
2022-11-26T12:42:31.847Z,5.94
2022-11-26T12:45:17.387Z,6.13
2022-11-26T12:47:54.385Z,6.19
2022-11-26T12:50:34.805Z,6.18
2022-11-26T12:53:18.348Z,6.12
2022-11-26T12:55:59.006Z,6.14
2022-11-26T12:58:45.611Z,6.09
2022-11-26T13:01:15.082Z,6.11
2022-11-26T13:03:44.446Z,6.14
2022-11-26T13:06:29.389Z,6.05
2022-11-26T13:09:08.809Z,6.06
2022-11-26T13:11:47.131Z,6.12
2022-11-26T13:14:27.144Z,6.04
2022-11-26T13:17:02.139Z,6.08
2022-11-26T13:19:37.041Z,6.00
2022-11-26T13:22:35.178Z,5.94
2022-11-26T13:25:41.891Z,6.04
2022-11-26T13:28:23.762Z,5.98
2022-11-26T13:31:15.053Z,5.97
2022-11-26T13:34:05.414Z,5.99
2022-11-26T13:37:13.298Z,6.01
2022-11-26T13:40:08.851Z,5.97
2022-11-26T13:43:04.981Z,6.00
2022-11-26T13:46:01.234Z,6.08
2022-11-26T13:48:37.413Z,6.02
2022-11-26T13:51:12.090Z,6.04
2022-11-26T13:53:48.483Z,6.12
2022-11-26T13:56:23.491Z,6.09
2022-11-26T13:58:56.806Z,6.08
2022-11-26T14:01:35.383Z,6.06
2022-11-26T14:04:07.691Z,6.04
2022-11-26T14:06:37.449Z,6.02
2022-11-26T14:09:07.311Z,6.05
2022-11-26T14:11:56.977Z,6.05
2022-11-26T14:14:40.130Z,6.04
2022-11-26T14:17:16.431Z,6.07
2022-11-26T14:20:02.618Z,6.03
2022-11-26T14:22:33.579Z,6.02
2022-11-26T14:25:05.683Z,6.03
2022-11-26T14:27:36.451Z,6.07
2022-11-26T14:30:28.197Z,6.05
2022-11-26T14:33:18.419Z,6.04
2022-11-26T14:35:56.770Z,6.04
2022-11-26T14:38:28.715Z,6.05
2022-11-26T14:41:00.302Z,6.11
2022-11-26T14:43:30.401Z,6.11
2022-11-26T14:46:06.673Z,6.11
2022-11-26T14:48:43.083Z,6.11
2022-11-26T14:51:12.310Z,6.15
2022-11-26T14:53:49.541Z,6.13
2022-11-26T14:56:20.530Z,6.14
2022-11-26T14:58:52.430Z,6.23
2022-11-26T15:01:24.219Z,6.23
2022-11-26T15:04:00.375Z,6.21
2022-11-26T15:06:34.801Z,6.25
2022-11-26T15:09:10.944Z,6.22
2022-11-26T15:12:00.662Z,6.25
2022-11-26T15:14:39.712Z,6.27
2022-11-26T15:17:13.163Z,6.31
2022-11-26T15:19:43.817Z,6.32
2022-11-26T15:22:22.674Z,6.33
2022-11-26T15:24:52.898Z,6.34
2022-11-26T15:27:31.307Z,6.36
2022-11-26T15:30:00.405Z,6.36
2022-11-26T15:32:31.619Z,6.37
2022-11-26T15:35:03.049Z,6.37
2022-11-26T15:37:32.127Z,6.33
2022-11-26T15:40:23.377Z,6.34
2022-11-26T15:42:58.134Z,6.32
2022-11-26T15:45:41.772Z,6.27
2022-11-26T15:48:27.543Z,6.25
2022-11-26T15:51:07.955Z,6.19
2022-11-26T15:53:40.276Z,6.17
2022-11-26T15:56:10.451Z,6.19
2022-11-26T15:58:43.307Z,6.14
2022-11-26T16:01:17.841Z,6.12
2022-11-26T16:03:49.408Z,6.13
2022-11-26T16:06:33.095Z,6.11
2022-11-26T16:09:27.689Z,6.14
2022-11-26T16:12:01.699Z,6.15
2022-11-26T16:14:34.827Z,6.14
2022-11-26T16:17:08.592Z,6.18
2022-11-26T16:19:43.273Z,6.15
2022-11-26T16:22:17.192Z,6.18
2022-11-26T16:24:46.769Z,6.20
2022-11-26T16:27:29.973Z,6.19
2022-11-26T16:30:02.515Z,6.22
2022-11-26T16:32:31.626Z,6.23
2022-11-26T16:35:12.243Z,6.24
2022-11-26T16:37:49.830Z,6.25
2022-11-26T16:40:19.992Z,6.27
2022-11-26T16:42:49.933Z,6.28
2022-11-26T16:45:20.865Z,6.30
2022-11-26T16:47:53.337Z,6.30
2022-11-26T16:50:24.675Z,6.31
2022-11-26T16:52:54.678Z,6.35
2022-11-26T16:55:26.840Z,6.36
2022-11-26T16:57:57.753Z,6.36
2022-11-26T17:00:28.579Z,6.38
2022-11-26T17:02:57.870Z,6.38
2022-11-26T17:05:27.058Z,6.39
2022-11-26T17:07:59.217Z,6.39
2022-11-26T17:10:30.255Z,6.41
2022-11-26T17:12:59.755Z,6.43
2022-11-26T17:15:30.202Z,6.44
2022-11-26T17:18:03.972Z,6.45
2022-11-26T17:20:33.067Z,6.46
2022-11-26T17:23:02.241Z,6.46
2022-11-26T17:25:31.295Z,6.47
2022-11-26T17:28:00.315Z,6.49
2022-11-26T17:30:30.943Z,6.48
2022-11-26T17:33:00.398Z,6.47
2022-11-26T17:35:29.459Z,6.50
2022-11-26T17:37:58.565Z,6.48
2022-11-26T17:40:28.853Z,6.49
2022-11-26T17:42:58.095Z,6.50
2022-11-26T17:45:27.523Z,6.51
2022-11-26T17:48:00.421Z,6.51
2022-11-26T17:50:30.769Z,6.53
2022-11-26T17:52:59.942Z,6.52
2022-11-26T17:55:29.307Z,6.53
2022-11-26T17:57:58.773Z,6.54
2022-11-26T18:00:30.084Z,6.53
2022-11-26T18:03:00.737Z,6.53
2022-11-26T18:05:29.862Z,6.55
2022-11-26T18:07:59.071Z,6.54
2022-11-26T18:10:28.513Z,6.55
2022-11-26T18:12:58.386Z,6.55
2022-11-26T18:15:28.346Z,6.57
2022-11-26T18:17:59.056Z,6.57
2022-11-26T18:20:29.891Z,6.58
2022-11-26T18:23:00.543Z,6.56
2022-11-26T18:25:30.589Z,6.59
2022-11-26T18:27:59.686Z,6.59
2022-11-26T18:30:30.460Z,6.58
2022-11-26T18:33:01.725Z,6.59
2022-11-26T18:35:31.122Z,6.59
2022-11-26T18:38:00.430Z,6.59
2022-11-26T18:40:29.553Z,6.59
2022-11-26T18:42:59.074Z,6.60
2022-11-26T18:45:28.247Z,6.58
2022-11-26T18:47:57.286Z,6.61
2022-11-26T18:50:27.860Z,6.60
2022-11-26T18:52:59.274Z,6.62
2022-11-26T18:55:28.504Z,6.59
2022-11-26T18:57:57.553Z,6.61
2022-11-26T19:00:26.786Z,6.62
2022-11-26T19:02:55.969Z,6.61
2022-11-26T19:05:25.216Z,6.60
2022-11-26T19:07:55.687Z,6.61
2022-11-26T19:10:24.964Z,6.63
2022-11-26T19:12:54.327Z,6.63
2022-11-26T19:15:23.442Z,6.65
2022-11-26T19:17:52.783Z,6.64
2022-11-26T19:20:21.949Z,6.67
2022-11-26T19:22:51.276Z,6.66
2022-11-26T19:25:21.958Z,6.67
2022-11-26T19:27:51.092Z,6.67
2022-11-26T19:30:20.576Z,6.69
2022-11-26T19:32:50.199Z,6.67
2022-11-26T19:35:19.639Z,6.67
2022-11-26T19:37:49.141Z,6.68
2022-11-26T19:40:18.469Z,6.67
2022-11-26T19:42:49.351Z,6.67
2022-11-26T19:45:18.784Z,6.66
2022-11-26T19:47:47.994Z,6.64
2022-11-26T19:50:17.554Z,6.62
2022-11-26T19:52:48.152Z,6.62
2022-11-26T19:55:17.504Z,6.59
2022-11-26T19:57:48.275Z,6.64
2022-11-26T20:00:17.857Z,6.61
2022-11-26T20:02:47.186Z,6.59
2022-11-26T20:05:16.775Z,6.60
2022-11-26T20:07:46.382Z,6.58
2022-11-26T20:10:16.555Z,6.59
2022-11-26T20:12:45.800Z,6.61
2022-11-26T20:15:16.699Z,6.61
2022-11-26T20:17:45.988Z,6.61
2022-11-26T20:20:16.600Z,6.61
2022-11-26T20:22:45.712Z,6.62
2022-11-26T20:25:15.665Z,6.60
2022-11-26T20:27:45.092Z,6.58
2022-11-26T20:30:16.172Z,6.54
2022-11-26T20:32:45.530Z,6.51
2022-11-26T20:35:14.676Z,6.46
2022-11-26T20:37:43.855Z,6.46
2022-11-26T20:40:13.360Z,6.48
2022-11-26T20:42:45.404Z,6.46
2022-11-26T20:45:16.245Z,6.42
2022-11-26T20:47:45.395Z,6.45
2022-11-26T20:50:14.983Z,6.45
2022-11-26T20:52:44.180Z,6.47
2022-11-26T20:55:13.509Z,6.46
2022-11-26T20:57:42.712Z,6.47
2022-11-26T21:00:16.933Z,6.47
2022-11-26T21:02:48.034Z,6.46
2022-11-26T21:05:17.578Z,6.44
2022-11-26T21:07:46.761Z,6.40
2022-11-26T21:10:16.369Z,6.41
2022-11-26T21:12:45.521Z,6.39
2022-11-26T21:15:14.561Z,6.40
2022-11-26T21:17:43.968Z,6.41
2022-11-26T21:20:15.628Z,6.41
2022-11-26T21:22:44.830Z,6.43
2022-11-26T21:25:13.979Z,6.41
2022-11-26T21:27:43.217Z,6.41
2022-11-26T21:30:13.460Z,6.37
2022-11-26T21:32:42.594Z,6.36
2022-11-26T21:35:13.120Z,6.34
2022-11-26T21:37:42.338Z,6.32
2022-11-26T21:40:12.739Z,6.27
2022-11-26T21:42:41.814Z,6.27
2022-11-26T21:45:11.560Z,6.24
2022-11-26T21:47:40.604Z,6.22
2022-11-26T21:50:10.933Z,6.22
2022-11-26T21:52:41.448Z,6.19
2022-11-26T21:55:11.168Z,6.17
2022-11-26T21:57:40.227Z,6.19
2022-11-26T22:00:10.646Z,6.19
2022-11-26T22:02:39.917Z,6.16
2022-11-26T22:05:09.539Z,6.13
2022-11-26T22:07:40.143Z,6.11
2022-11-26T22:10:10.889Z,6.11
2022-11-26T22:12:39.948Z,6.11
2022-11-26T22:15:09.860Z,6.10
2022-11-26T22:17:39.233Z,6.11
2022-11-26T22:20:09.916Z,6.11
2022-11-26T22:22:40.400Z,6.12
2022-11-26T22:25:10.057Z,6.13
2022-11-26T22:27:39.711Z,6.12
2022-11-26T22:30:09.777Z,6.13
2022-11-26T22:32:38.923Z,6.12
2022-11-26T22:35:08.867Z,6.08
2022-11-26T22:37:38.173Z,6.06
2022-11-26T22:40:10.650Z,6.07
2022-11-26T22:42:41.943Z,6.09
2022-11-26T22:45:12.266Z,6.08
2022-11-26T22:47:41.312Z,6.07
2022-11-26T22:50:11.149Z,6.08
2022-11-26T22:52:40.384Z,6.07
2022-11-26T22:55:11.252Z,6.06
2022-11-26T22:57:40.335Z,6.09
2022-11-26T23:00:13.556Z,6.05
2022-11-26T23:02:42.742Z,6.10
2022-11-26T23:05:12.298Z,6.09
2022-11-26T23:07:41.389Z,6.10
2022-11-26T23:10:13.106Z,6.12
2022-11-26T23:12:42.194Z,6.12
2022-11-26T23:15:12.119Z,6.11
2022-11-26T23:17:41.416Z,6.10
2022-11-26T23:20:11.157Z,6.10
2022-11-26T23:22:40.334Z,6.08
2022-11-26T23:25:12.327Z,6.08
2022-11-26T23:27:41.531Z,6.04
2022-11-26T23:30:11.628Z,6.00
2022-11-26T23:32:40.777Z,5.99
2022-11-26T23:35:10.528Z,6.01
2022-11-26T23:37:40.160Z,5.97
2022-11-26T23:40:11.506Z,5.97
2022-11-26T23:42:42.068Z,5.94
2022-11-26T23:45:11.745Z,5.95
2022-11-26T23:47:40.804Z,5.94
2022-11-26T23:50:10.428Z,5.87
2022-11-26T23:52:39.503Z,5.86
2022-11-26T23:55:09.814Z,5.82
2022-11-26T23:57:38.909Z,5.82
